sensor_id;sensor_type;location;lat;lon;timestamp;pressure;altitude;pressure_sealevel;temperature;humidity
51526;BME280;37611;51.794;21.590;2023-01-31T00:03:26;98741.29;;;1.04;100.00
51526;BME280;37611;51.794;21.590;2023-01-31T00:07:28;98737.91;;;1.08;100.00
51526;BME280;37611;51.794;21.590;2023-01-31T00:11:30;98740.77;;;1.08;100.00
51526;BME280;37611;51.794;21.590;2023-01-31T00:15:32;98743.27;;;1.09;100.00
51526;BME280;37611;51.794;21.590;2023-01-31T00:19:34;98749.62;;;1.10;100.00
51526;BME280;37611;51.794;21.590;2023-01-31T00:23:37;98749.70;;;1.11;100.00
51526;BME280;37611;51.794;21.590;2023-01-31T00:27:39;98752.75;;;1.10;100.00
51526;BME280;37611;51.794;21.590;2023-01-31T00:31:41;98752.34;;;1.10;100.00
51526;BME280;37611;51.794;21.590;2023-01-31T00:35:43;98752.64;;;1.13;100.00
51526;BME280;37611;51.794;21.590;2023-01-31T00:39:45;98754.15;;;1.15;100.00
51526;BME280;37611;51.794;21.590;2023-01-31T00:43:47;98757.55;;;1.16;100.00
51526;BME280;37611;51.794;21.590;2023-01-31T00:47:49;98755.65;;;1.16;100.00
51526;BME280;37611;51.794;21.590;2023-01-31T00:51:51;98762.18;;;1.18;100.00
51526;BME280;37611;51.794;21.590;2023-01-31T00:56:00;98757.66;;;1.21;100.00
51526;BME280;37611;51.794;21.590;2023-01-31T01:00:04;98759.02;;;1.21;100.00
51526;BME280;37611;51.794;21.590;2023-01-31T01:04:07;98770.95;;;1.25;100.00
51526;BME280;37611;51.794;21.590;2023-01-31T01:08:09;98778.83;;;1.30;100.00
51526;BME280;37611;51.794;21.590;2023-01-31T01:12:11;98777.07;;;1.29;100.00
51526;BME280;37611;51.794;21.590;2023-01-31T01:16:24;98777.38;;;1.29;100.00
51526;BME280;37611;51.794;21.590;2023-01-31T01:20:26;98778.73;;;1.30;100.00
51526;BME280;37611;51.794;21.590;2023-01-31T01:24:28;98780.80;;;1.31;100.00
51526;BME280;37611;51.794;21.590;2023-01-31T01:28:34;98785.63;;;1.33;100.00
51526;BME280;37611;51.794;21.590;2023-01-31T01:32:36;98784.86;;;1.35;100.00
51526;BME280;37611;51.794;21.590;2023-01-31T01:36:39;98791.37;;;1.33;100.00
51526;BME280;37611;51.794;21.590;2023-01-31T01:40:41;98794.75;;;1.36;100.00
51526;BME280;37611;51.794;21.590;2023-01-31T01:44:49;98795.60;;;1.36;100.00
51526;BME280;37611;51.794;21.590;2023-01-31T01:48:59;98797.00;;;1.38;100.00
51526;BME280;37611;51.794;21.590;2023-01-31T01:53:07;98799.80;;;1.39;100.00
51526;BME280;37611;51.794;21.590;2023-01-31T01:57:15;98800.51;;;1.42;100.00
51526;BME280;37611;51.794;21.590;2023-01-31T02:01:18;98805.39;;;1.43;100.00
51526;BME280;37611;51.794;21.590;2023-01-31T02:05:27;98813.48;;;1.45;100.00
51526;BME280;37611;51.794;21.590;2023-01-31T02:10:23;98820.94;;;1.45;100.00
51526;BME280;37611;51.794;21.590;2023-01-31T02:14:17;98824.70;;;1.45;100.00
51526;BME280;37611;51.794;21.590;2023-01-31T02:18:20;98836.67;;;1.47;100.00
51526;BME280;37611;51.794;21.590;2023-01-31T02:22:39;98844.19;;;1.52;100.00
51526;BME280;37611;51.794;21.590;2023-01-31T02:49:06;98887.20;;;1.62;100.00
51526;BME280;37611;51.794;21.590;2023-01-31T02:53:25;98887.70;;;1.64;100.00
51526;BME280;37611;51.794;21.590;2023-01-31T02:57:29;98897.15;;;1.67;100.00
51526;BME280;37611;51.794;21.590;2023-01-31T03:01:34;98903.59;;;1.68;100.00
51526;BME280;37611;51.794;21.590;2023-01-31T03:05:37;98910.95;;;1.71;100.00
51526;BME280;37611;51.794;21.590;2023-01-31T03:14:26;98925.73;;;1.72;100.00
51526;BME280;37611;51.794;21.590;2023-01-31T03:19:13;98919.48;;;1.73;100.00
51526;BME280;37611;51.794;21.590;2023-01-31T03:23:17;98924.41;;;1.74;100.00
51526;BME280;37611;51.794;21.590;2023-01-31T03:27:20;98930.17;;;1.75;100.00
51526;BME280;37611;51.794;21.590;2023-01-31T03:31:27;98935.20;;;1.75;100.00
51526;BME280;37611;51.794;21.590;2023-01-31T03:35:33;98944.90;;;1.77;100.00
51526;BME280;37611;51.794;21.590;2023-01-31T03:39:41;98949.25;;;1.76;100.00
51526;BME280;37611;51.794;21.590;2023-01-31T03:44:00;98954.15;;;1.79;100.00
51526;BME280;37611;51.794;21.590;2023-01-31T03:48:06;98955.13;;;1.78;100.00
51526;BME280;37611;51.794;21.590;2023-01-31T03:52:18;98952.33;;;1.76;100.00
51526;BME280;37611;51.794;21.590;2023-01-31T03:56:35;98955.58;;;1.77;100.00
51526;BME280;37611;51.794;21.590;2023-01-31T04:00:41;98959.35;;;1.77;100.00
51526;BME280;37611;51.794;21.590;2023-01-31T04:04:51;98970.05;;;1.79;100.00
51526;BME280;37611;51.794;21.590;2023-01-31T04:08:54;98969.67;;;1.80;100.00
51526;BME280;37611;51.794;21.590;2023-01-31T04:12:56;98976.38;;;1.82;100.00
51526;BME280;37611;51.794;21.590;2023-01-31T04:16:58;98979.16;;;1.82;100.00
51526;BME280;37611;51.794;21.590;2023-01-31T04:21:00;98982.06;;;1.82;100.00
51526;BME280;37611;51.794;21.590;2023-01-31T04:25:03;98988.38;;;1.83;100.00
51526;BME280;37611;51.794;21.590;2023-01-31T04:29:06;98997.52;;;1.85;100.00
51526;BME280;37611;51.794;21.590;2023-01-31T04:33:08;99000.98;;;1.88;100.00
51526;BME280;37611;51.794;21.590;2023-01-31T04:37:09;99008.71;;;1.88;100.00
51526;BME280;37611;51.794;21.590;2023-01-31T04:41:11;99017.58;;;1.89;100.00
51526;BME280;37611;51.794;21.590;2023-01-31T04:45:13;99017.28;;;1.87;100.00
51526;BME280;37611;51.794;21.590;2023-01-31T04:49:16;99029.16;;;1.85;100.00
51526;BME280;37611;51.794;21.590;2023-01-31T04:53:17;99038.31;;;1.82;100.00
51526;BME280;37611;51.794;21.590;2023-01-31T04:57:19;99036.21;;;1.81;100.00
51526;BME280;37611;51.794;21.590;2023-01-31T05:01:21;99040.86;;;1.85;100.00
51526;BME280;37611;51.794;21.590;2023-01-31T05:05:23;99044.80;;;1.85;100.00
51526;BME280;37611;51.794;21.590;2023-01-31T05:09:25;99051.05;;;1.87;100.00
51526;BME280;37611;51.794;21.590;2023-01-31T05:13:27;99055.78;;;1.89;100.00
51526;BME280;37611;51.794;21.590;2023-01-31T05:17:30;99058.04;;;1.91;100.00
51526;BME280;37611;51.794;21.590;2023-01-31T05:21:32;99063.47;;;1.92;100.00
51526;BME280;37611;51.794;21.590;2023-01-31T05:25:54;99074.29;;;1.93;100.00
51526;BME280;37611;51.794;21.590;2023-01-31T05:29:56;99077.20;;;1.93;100.00
51526;BME280;37611;51.794;21.590;2023-01-31T05:33:57;99082.67;;;1.89;100.00
51526;BME280;37611;51.794;21.590;2023-01-31T05:37:59;99091.83;;;1.85;100.00
51526;BME280;37611;51.794;21.590;2023-01-31T05:42:01;99101.63;;;1.83;100.00
51526;BME280;37611;51.794;21.590;2023-01-31T05:46:03;99110.16;;;1.84;100.00
51526;BME280;37611;51.794;21.590;2023-01-31T05:50:05;99117.55;;;1.87;100.00
51526;BME280;37611;51.794;21.590;2023-01-31T05:54:09;99127.06;;;1.89;100.00
51526;BME280;37611;51.794;21.590;2023-01-31T05:58:11;99137.94;;;1.89;100.00
51526;BME280;37611;51.794;21.590;2023-01-31T06:02:13;99143.17;;;1.90;100.00
51526;BME280;37611;51.794;21.590;2023-01-31T06:06:15;99151.17;;;1.87;100.00
51526;BME280;37611;51.794;21.590;2023-01-31T06:10:17;99159.99;;;1.85;100.00
51526;BME280;37611;51.794;21.590;2023-01-31T06:14:19;99162.09;;;1.82;100.00
51526;BME280;37611;51.794;21.590;2023-01-31T06:18:22;99170.83;;;1.79;100.00
51526;BME280;37611;51.794;21.590;2023-01-31T06:22:23;99176.66;;;1.79;100.00
51526;BME280;37611;51.794;21.590;2023-01-31T06:26:25;99185.23;;;1.80;100.00
51526;BME280;37611;51.794;21.590;2023-01-31T06:30:27;99190.83;;;1.84;100.00
51526;BME280;37611;51.794;21.590;2023-01-31T06:34:29;99203.61;;;1.86;100.00
51526;BME280;37611;51.794;21.590;2023-01-31T06:38:31;99210.85;;;1.88;100.00
51526;BME280;37611;51.794;21.590;2023-01-31T06:42:33;99220.52;;;1.90;100.00
51526;BME280;37611;51.794;21.590;2023-01-31T06:46:35;99228.31;;;1.90;100.00
51526;BME280;37611;51.794;21.590;2023-01-31T06:50:37;99235.84;;;1.86;100.00
51526;BME280;37611;51.794;21.590;2023-01-31T06:54:39;99245.94;;;1.83;100.00
51526;BME280;37611;51.794;21.590;2023-01-31T06:58:41;99249.20;;;1.83;100.00
51526;BME280;37611;51.794;21.590;2023-01-31T07:02:44;99248.14;;;1.86;100.00
51526;BME280;37611;51.794;21.590;2023-01-31T07:06:46;99251.25;;;1.88;100.00
51526;BME280;37611;51.794;21.590;2023-01-31T07:10:48;99254.12;;;1.93;100.00
51526;BME280;37611;51.794;21.590;2023-01-31T07:14:50;99260.84;;;1.98;100.00
51526;BME280;37611;51.794;21.590;2023-01-31T07:18:53;99268.76;;;2.01;100.00
51526;BME280;37611;51.794;21.590;2023-01-31T07:22:58;99277.00;;;2.02;100.00
51526;BME280;37611;51.794;21.590;2023-01-31T07:27:00;99276.25;;;2.02;100.00
51526;BME280;37611;51.794;21.590;2023-01-31T07:31:07;99281.27;;;2.05;100.00
51526;BME280;37611;51.794;21.590;2023-01-31T07:35:11;99286.83;;;2.06;100.00
51526;BME280;37611;51.794;21.590;2023-01-31T07:39:13;99288.41;;;2.11;100.00
51526;BME280;37611;51.794;21.590;2023-01-31T07:43:15;99298.83;;;2.16;100.00
51526;BME280;37611;51.794;21.590;2023-01-31T07:47:17;99306.29;;;2.18;100.00
51526;BME280;37611;51.794;21.590;2023-01-31T07:51:18;99312.95;;;2.19;100.00
51526;BME280;37611;51.794;21.590;2023-01-31T07:55:21;99315.59;;;2.18;100.00
51526;BME280;37611;51.794;21.590;2023-01-31T07:59:26;99321.73;;;2.27;100.00
51526;BME280;37611;51.794;21.590;2023-01-31T08:03:30;99327.63;;;2.33;100.00
51526;BME280;37611;51.794;21.590;2023-01-31T08:07:38;99334.41;;;2.39;100.00
51526;BME280;37611;51.794;21.590;2023-01-31T08:11:40;99343.57;;;2.49;100.00
51526;BME280;37611;51.794;21.590;2023-01-31T08:20:51;99354.96;;;2.60;100.00
51526;BME280;37611;51.794;21.590;2023-01-31T08:29:44;99366.53;;;2.80;100.00
51526;BME280;37611;51.794;21.590;2023-01-31T08:34:09;99366.77;;;2.84;100.00
51526;BME280;37611;51.794;21.590;2023-01-31T08:38:15;99381.35;;;2.75;100.00
51526;BME280;37611;51.794;21.590;2023-01-31T08:42:17;99381.89;;;2.72;100.00
51526;BME280;37611;51.794;21.590;2023-01-31T08:46:19;99385.69;;;2.77;100.00
51526;BME280;37611;51.794;21.590;2023-01-31T08:50:28;99391.05;;;2.74;100.00
51526;BME280;37611;51.794;21.590;2023-01-31T08:54:32;99397.19;;;2.78;100.00
51526;BME280;37611;51.794;21.590;2023-01-31T08:58:37;99402.17;;;2.84;100.00
51526;BME280;37611;51.794;21.590;2023-01-31T09:02:39;99406.08;;;2.85;100.00
51526;BME280;37611;51.794;21.590;2023-01-31T09:06:41;99411.45;;;2.92;100.00
51526;BME280;37611;51.794;21.590;2023-01-31T09:10:50;99408.12;;;2.95;100.00
51526;BME280;37611;51.794;21.590;2023-01-31T09:15:05;99418.89;;;2.92;100.00
51526;BME280;37611;51.794;21.590;2023-01-31T09:19:07;99423.36;;;2.95;100.00
51526;BME280;37611;51.794;21.590;2023-01-31T09:23:09;99425.26;;;2.97;100.00
51526;BME280;37611;51.794;21.590;2023-01-31T09:27:11;99429.38;;;3.00;100.00
51526;BME280;37611;51.794;21.590;2023-01-31T09:31:18;99431.56;;;3.07;100.00
51526;BME280;37611;51.794;21.590;2023-01-31T09:35:26;99434.07;;;3.11;100.00
51526;BME280;37611;51.794;21.590;2023-01-31T09:43:54;99437.55;;;3.08;99.92
51526;BME280;37611;51.794;21.590;2023-01-31T09:48:01;99441.02;;;3.10;100.00
51526;BME280;37611;51.794;21.590;2023-01-31T09:56:44;99453.11;;;3.11;99.67
51526;BME280;37611;51.794;21.590;2023-01-31T10:36:20;99461.65;;;3.16;96.97
51526;BME280;37611;51.794;21.590;2023-01-31T11:44:20;99456.89;;;3.49;93.86
51526;BME280;37611;51.794;21.590;2023-01-31T13:08:04;99435.67;;;2.94;92.63
51526;BME280;37611;51.794;21.590;2023-01-31T13:47:59;99432.60;;;2.69;92.16
51526;BME280;37611;51.794;21.590;2023-01-31T13:52:40;99435.41;;;2.64;92.10
51526;BME280;37611;51.794;21.590;2023-01-31T17:29:34;99385.54;;;1.16;96.19
51526;BME280;37611;51.794;21.590;2023-01-31T17:33:36;99381.11;;;1.08;95.99
51526;BME280;37611;51.794;21.590;2023-01-31T17:37:37;99372.80;;;0.99;96.22
51526;BME280;37611;51.794;21.590;2023-01-31T17:41:39;99369.44;;;0.95;96.88
51526;BME280;37611;51.794;21.590;2023-01-31T17:45:42;99363.95;;;0.94;97.31
51526;BME280;37611;51.794;21.590;2023-01-31T17:49:44;99362.23;;;0.97;97.86
51526;BME280;37611;51.794;21.590;2023-01-31T17:53:48;99354.06;;;0.98;97.69
51526;BME280;37611;51.794;21.590;2023-01-31T17:57:50;99349.91;;;0.95;97.94
51526;BME280;37611;51.794;21.590;2023-01-31T18:01:52;99344.80;;;0.94;98.05
51526;BME280;37611;51.794;21.590;2023-01-31T18:06:01;99340.98;;;0.90;98.21
51526;BME280;37611;51.794;21.590;2023-01-31T18:10:07;99336.08;;;0.86;98.45
51526;BME280;37611;51.794;21.590;2023-01-31T18:14:12;99332.59;;;0.89;99.10
51526;BME280;37611;51.794;21.590;2023-01-31T18:18:15;99322.41;;;0.92;99.38
51526;BME280;37611;51.794;21.590;2023-01-31T18:22:17;99317.91;;;0.99;99.60
51526;BME280;37611;51.794;21.590;2023-01-31T18:26:20;99307.73;;;1.02;99.75
51526;BME280;37611;51.794;21.590;2023-01-31T18:30:26;99302.86;;;1.03;99.80
51526;BME280;37611;51.794;21.590;2023-01-31T18:34:29;99300.44;;;1.01;99.73
51526;BME280;37611;51.794;21.590;2023-01-31T18:38:53;99299.14;;;0.97;99.99
51526;BME280;37611;51.794;21.590;2023-01-31T18:47:30;99277.35;;;0.93;100.00
51526;BME280;37611;51.794;21.590;2023-01-31T18:51:41;99275.06;;;0.96;100.00
51526;BME280;37611;51.794;21.590;2023-01-31T18:56:19;99270.09;;;1.01;100.00
51526;BME280;37611;51.794;21.590;2023-01-31T19:01:25;99269.30;;;1.04;100.00
51526;BME280;37611;51.794;21.590;2023-01-31T19:05:36;99254.38;;;1.08;100.00
51526;BME280;37611;51.794;21.590;2023-01-31T19:10:31;99247.58;;;1.07;100.00
51526;BME280;37611;51.794;21.590;2023-01-31T19:14:57;99238.49;;;1.04;100.00
51526;BME280;37611;51.794;21.590;2023-01-31T19:23:46;99217.23;;;0.95;100.00
51526;BME280;37611;51.794;21.590;2023-01-31T19:28:01;99212.39;;;0.95;100.00
51526;BME280;37611;51.794;21.590;2023-01-31T19:32:24;99210.63;;;1.00;100.00
51526;BME280;37611;51.794;21.590;2023-01-31T19:36:37;99200.86;;;1.04;100.00
51526;BME280;37611;51.794;21.590;2023-01-31T19:41:02;99197.17;;;1.10;100.00
51526;BME280;37611;51.794;21.590;2023-01-31T19:50:31;99176.41;;;1.13;100.00
51526;BME280;37611;51.794;21.590;2023-01-31T19:55:42;99168.04;;;1.15;100.00
51526;BME280;37611;51.794;21.590;2023-01-31T20:05:39;99147.93;;;1.25;100.00
51526;BME280;37611;51.794;21.590;2023-01-31T20:15:00;99126.80;;;1.36;100.00
51526;BME280;37611;51.794;21.590;2023-01-31T20:23:50;99114.98;;;1.32;100.00
51526;BME280;37611;51.794;21.590;2023-01-31T20:28:11;99104.92;;;1.33;100.00
51526;BME280;37611;51.794;21.590;2023-01-31T20:32:44;99096.17;;;1.28;100.00
51526;BME280;37611;51.794;21.590;2023-01-31T20:36:56;99084.65;;;1.28;100.00
51526;BME280;37611;51.794;21.590;2023-01-31T20:41:09;99071.52;;;1.30;100.00
51526;BME280;37611;51.794;21.590;2023-01-31T20:45:18;99063.00;;;1.33;100.00
51526;BME280;37611;51.794;21.590;2023-01-31T20:49:23;99051.44;;;1.33;100.00
51526;BME280;37611;51.794;21.590;2023-01-31T20:53:29;99042.83;;;1.40;100.00
51526;BME280;37611;51.794;21.590;2023-01-31T20:57:32;99038.99;;;1.43;100.00
51526;BME280;37611;51.794;21.590;2023-01-31T21:01:34;99028.50;;;1.42;100.00
51526;BME280;37611;51.794;21.590;2023-01-31T21:05:37;99027.86;;;1.39;100.00
51526;BME280;37611;51.794;21.590;2023-01-31T21:09:39;99023.14;;;1.42;100.00
51526;BME280;37611;51.794;21.590;2023-01-31T21:13:50;99016.05;;;1.45;100.00
51526;BME280;37611;51.794;21.590;2023-01-31T21:18:06;99013.47;;;1.52;100.00
51526;BME280;37611;51.794;21.590;2023-01-31T21:22:11;99008.67;;;1.56;100.00
51526;BME280;37611;51.794;21.590;2023-01-31T21:26:13;99010.73;;;1.58;100.00
51526;BME280;37611;51.794;21.590;2023-01-31T21:30:15;99007.13;;;1.60;100.00
51526;BME280;37611;51.794;21.590;2023-01-31T21:34:40;99003.39;;;1.57;100.00
51526;BME280;37611;51.794;21.590;2023-01-31T21:38:42;98994.64;;;1.56;100.00
51526;BME280;37611;51.794;21.590;2023-01-31T21:42:48;98985.90;;;1.56;100.00
51526;BME280;37611;51.794;21.590;2023-01-31T21:46:50;98981.06;;;1.58;100.00
51526;BME280;37611;51.794;21.590;2023-01-31T21:51:16;98975.93;;;1.57;100.00
51526;BME280;37611;51.794;21.590;2023-01-31T22:00:39;98950.41;;;1.55;100.00
51526;BME280;37611;51.794;21.590;2023-01-31T22:05:25;98948.11;;;1.52;100.00
51526;BME280;37611;51.794;21.590;2023-01-31T22:09:38;98938.95;;;1.49;100.00
51526;BME280;37611;51.794;21.590;2023-01-31T22:13:44;98930.39;;;1.51;100.00
51526;BME280;37611;51.794;21.590;2023-01-31T22:17:50;98920.68;;;1.52;100.00
51526;BME280;37611;51.794;21.590;2023-01-31T22:21:57;98911.23;;;1.53;100.00
51526;BME280;37611;51.794;21.590;2023-01-31T22:26:32;98898.20;;;1.54;100.00
51526;BME280;37611;51.794;21.590;2023-01-31T22:30:58;98892.34;;;1.54;100.00
51526;BME280;37611;51.794;21.590;2023-01-31T22:35:24;98882.52;;;1.54;100.00
51526;BME280;37611;51.794;21.590;2023-01-31T22:39:46;98880.09;;;1.47;100.00
51526;BME280;37611;51.794;21.590;2023-01-31T22:44:09;98875.47;;;1.38;100.00
51526;BME280;37611;51.794;21.590;2023-01-31T22:48:12;98872.67;;;1.39;100.00
51526;BME280;37611;51.794;21.590;2023-01-31T22:52:14;98868.30;;;1.35;100.00
51526;BME280;37611;51.794;21.590;2023-01-31T22:56:20;98860.17;;;1.27;100.00
51526;BME280;37611;51.794;21.590;2023-01-31T23:00:22;98845.38;;;1.13;100.00
51526;BME280;37611;51.794;21.590;2023-01-31T23:04:24;98839.34;;;1.02;100.00
51526;BME280;37611;51.794;21.590;2023-01-31T23:08:26;98835.59;;;0.95;100.00
51526;BME280;37611;51.794;21.590;2023-01-31T23:12:40;98828.80;;;0.91;100.00
51526;BME280;37611;51.794;21.590;2023-01-31T23:23:00;98820.44;;;0.86;100.00
51526;BME280;37611;51.794;21.590;2023-01-31T23:31:47;98811.27;;;0.97;100.00
51526;BME280;37611;51.794;21.590;2023-01-31T23:36:58;98805.70;;;1.05;100.00
51526;BME280;37611;51.794;21.590;2023-01-31T23:41:33;98793.42;;;1.16;100.00
51526;BME280;37611;51.794;21.590;2023-01-31T23:46:29;98784.66;;;1.22;100.00
